»·PEaware :: N422CU L52-KBFL

N422CU :: L52-KBFL

FLIGHT INFORMATION

Flight Status: Arrived
Operator: Privately registered:
United States
More flights under this callsign
Pilot: Christian U. (16550)
Aircraft: DIAMOND DA-42 TWINSTAR
(DA42)
More flights by this aircraft type
Origin: L52 Oceano Co
United States
Destination: KBFL Meadows
United States
More flights between these airports :: More routes between these airports
Route:
File this flight plan on PilotEdge
Remarks:
Altitude:
(Current/Filed)
7,500ft
Speed:
(Current/Filed)
140kts
Departed: 07-Oct-17 08:45 AM
Arrived: 07-Oct-17 09:23 AM
Distance/Time
Traveled:
80nm/0:37
Distance/Time
To Go:
Arrived

Flight Plot

Page will automatically refresh every two minutes.

Flight plan parsing failed; only flown route is shown


Map Options




Map Legend


Flown Route
Filed Route
Departure Airport
Arrival Airport
Navaid (VOR, NDB)
Fix

Horizontal Profiles

Position Reports

Time Latitude Longitude Heading Altitude Ground
Speed
07-Oct-17 08:41 35.103338 -120.624446 32 17ft 0kts
07-Oct-17 08:42 35.103338 -120.624446 32 17ft 0kts
07-Oct-17 08:43 35.103338 -120.624446 32 17ft 0kts
07-Oct-17 08:44 35.103338 -120.624446 32 17ft 0kts
07-Oct-17 08:45 35.103338 -120.624446 32 17ft 0kts
07-Oct-17 08:46 35.103732 -120.625171 204 17ft 4kts
07-Oct-17 08:47 35.103625 -120.625224 201 17ft 0kts
07-Oct-17 08:48 35.103031 -120.625158 125 17ft 17kts
07-Oct-17 08:49 35.092172 -120.604463 117 968ft 88kts
07-Oct-17 08:50 35.097058 -120.574504 73 2250ft 98kts
07-Oct-17 08:51 35.106107 -120.541444 73 3462ft 107kts
07-Oct-17 08:52 35.115906 -120.506449 73 4669ft 111kts
07-Oct-17 08:53 35.126036 -120.470441 73 5869ft 114kts
07-Oct-17 08:54 35.136290 -120.433361 73 7071ft 116kts
07-Oct-17 08:55 35.147245 -120.392016 73 7503ft 140kts
07-Oct-17 08:56 35.159266 -120.345794 73 7503ft 143kts
07-Oct-17 08:57 35.171292 -120.299049 73 7505ft 144kts
07-Oct-17 08:58 35.183183 -120.252234 73 7508ft 144kts
07-Oct-17 08:59 35.195000 -120.205167 73 7509ft 144kts
07-Oct-17 09:00 35.206794 -120.158170 73 7509ft 144kts
07-Oct-17 09:01 35.218656 -120.111044 73 7508ft 144kts
07-Oct-17 09:02 35.230576 -120.063825 73 7426ft 144kts
07-Oct-17 09:03 35.242342 -120.017206 73 7427ft 143kts
07-Oct-17 09:04 35.252913 -119.975327 73 7429ft 143kts
07-Oct-17 09:05 35.263198 -119.928442 77 7435ft 142kts
07-Oct-17 09:06 35.270951 -119.890030 75 7445ft 139kts
07-Oct-17 09:07 35.277857 -119.844621 77 7447ft 135kts
07-Oct-17 09:08 35.284644 -119.799340 77 7457ft 135kts
07-Oct-17 09:09 35.291404 -119.754043 77 7467ft 135kts
07-Oct-17 09:10 35.298320 -119.708689 74 7476ft 135kts
07-Oct-17 09:11 35.307758 -119.663895 73 7484ft 136kts
07-Oct-17 09:12 35.317205 -119.619029 73 7490ft 136kts
07-Oct-17 09:13 35.326782 -119.573805 73 7495ft 137kts
07-Oct-17 09:14 35.336458 -119.528510 73 7498ft 137kts
07-Oct-17 09:15 35.346235 -119.483091 73 7155ft 137kts
07-Oct-17 09:16 35.356062 -119.438040 73 6555ft 137kts
07-Oct-17 09:17 35.365987 -119.393112 73 5953ft 136kts
07-Oct-17 09:18 35.371305 -119.347253 81 5352ft 136kts
07-Oct-17 09:19 35.376238 -119.301402 81 4751ft 135kts
07-Oct-17 09:20 35.380556 -119.255565 86 4150ft 135kts
07-Oct-17 09:21 35.382454 -119.209776 86 3551ft 135kts
07-Oct-17 09:22 35.385614 -119.164044 63 2945ft 134kts
07-Oct-17 09:23 35.398002 -119.123751 102 2346ft 130kts
07-Oct-17 09:24 35.395154 -119.086123 60 1755ft 92kts
07-Oct-17 09:25 35.404486 -119.058984 75 1207ft 77kts
07-Oct-17 09:26 35.419140 -119.043390 351 811ft 74kts
07-Oct-17 09:27 35.434331 -119.056781 318 509ft 23kts
07-Oct-17 09:28 35.436247 -119.057849 59 509ft 0kts
07-Oct-17 09:29 35.434952 -119.055314 135 509ft 16kts
07-Oct-17 09:30 35.431684 -119.051365 135 509ft 16kts
07-Oct-17 09:31 35.429251 -119.048427 135 509ft 13kts
07-Oct-17 09:32 35.426417 -119.045009 133 509ft 12kts
07-Oct-17 09:33 35.425888 -119.042856 7 509ft 2kts
07-Oct-17 09:34 35.426241 -119.042731 186 509ft 0kts

Navigation Log

Ident Type
Flight plan parsing failed, navigation log unavailable